sensor_id;sensor_type;location;lat;lon;timestamp;pressure;altitude;pressure_sealevel;temperature;humidity
27220;BME280;45274;52.266;10.790;2023-10-13T00:01:26;100003.59;;;15.23;100.00
27220;BME280;45274;52.266;10.790;2023-10-13T00:03:54;100000.00;;;15.24;100.00
27220;BME280;45274;52.266;10.790;2023-10-13T00:06:19;100006.47;;;15.28;100.00
27220;BME280;45274;52.266;10.790;2023-10-13T00:08:48;99991.91;;;15.35;100.00
27220;BME280;45274;52.266;10.790;2023-10-13T00:11:16;99988.53;;;15.27;100.00
27220;BME280;45274;52.266;10.790;2023-10-13T00:13:44;99990.19;;;15.20;100.00
27220;BME280;45274;52.266;10.790;2023-10-13T00:16:25;99988.56;;;15.19;100.00
27220;BME280;45274;52.266;10.790;2023-10-13T00:18:57;99982.59;;;15.18;100.00
27220;BME280;45274;52.266;10.790;2023-10-13T00:21:24;99972.94;;;15.20;100.00
27220;BME280;45274;52.266;10.790;2023-10-13T00:24:04;99974.69;;;15.20;100.00
27220;BME280;45274;52.266;10.790;2023-10-13T00:26:39;99973.72;;;15.21;100.00
27220;BME280;45274;52.266;10.790;2023-10-13T00:29:08;99978.53;;;15.24;100.00
27220;BME280;45274;52.266;10.790;2023-10-13T00:31:41;99974.19;;;15.24;100.00
27220;BME280;45274;52.266;10.790;2023-10-13T00:34:11;99975.63;;;15.27;100.00
27220;BME280;45274;52.266;10.790;2023-10-13T00:36:43;99988.41;;;15.28;100.00
27220;BME280;45274;52.266;10.790;2023-10-13T00:39:14;99971.78;;;15.31;100.00
27220;BME280;45274;52.266;10.790;2023-10-13T00:41:44;99976.31;;;15.29;100.00
27220;BME280;45274;52.266;10.790;2023-10-13T00:44:23;99975.16;;;15.31;100.00
27220;BME280;45274;52.266;10.790;2023-10-13T00:47:03;99964.50;;;15.34;100.00
27220;BME280;45274;52.266;10.790;2023-10-13T00:49:36;99957.91;;;15.32;100.00
27220;BME280;45274;52.266;10.790;2023-10-13T00:52:09;99960.59;;;15.39;100.00
27220;BME280;45274;52.266;10.790;2023-10-13T00:54:42;99952.69;;;15.40;100.00
27220;BME280;45274;52.266;10.790;2023-10-13T00:57:14;99956.53;;;15.44;100.00
27220;BME280;45274;52.266;10.790;2023-10-13T00:59:53;99964.13;;;15.54;100.00
27220;BME280;45274;52.266;10.790;2023-10-13T01:02:23;99966.44;;;15.49;100.00
27220;BME280;45274;52.266;10.790;2023-10-13T01:05:01;99967.25;;;15.49;100.00
27220;BME280;45274;52.266;10.790;2023-10-13T01:07:28;99970.13;;;15.54;100.00
27220;BME280;45274;52.266;10.790;2023-10-13T01:09:53;99965.09;;;15.53;100.00
27220;BME280;45274;52.266;10.790;2023-10-13T01:12:19;99958.97;;;15.54;100.00
27220;BME280;45274;52.266;10.790;2023-10-13T01:14:45;99947.34;;;15.58;100.00
27220;BME280;45274;52.266;10.790;2023-10-13T01:17:11;99949.75;;;15.59;100.00
27220;BME280;45274;52.266;10.790;2023-10-13T01:19:39;99950.56;;;15.60;100.00
27220;BME280;45274;52.266;10.790;2023-10-13T01:22:08;99940.75;;;15.55;100.00
27220;BME280;45274;52.266;10.790;2023-10-13T01:24:33;99940.09;;;15.53;100.00
27220;BME280;45274;52.266;10.790;2023-10-13T01:27:09;99947.78;;;15.61;100.00
27220;BME280;45274;52.266;10.790;2023-10-13T01:29:45;99945.69;;;15.65;100.00
27220;BME280;45274;52.266;10.790;2023-10-13T01:32:22;99941.84;;;15.61;100.00
27220;BME280;45274;52.266;10.790;2023-10-13T01:34:48;99943.31;;;15.55;100.00
27220;BME280;45274;52.266;10.790;2023-10-13T01:37:14;99941.84;;;15.61;100.00
27220;BME280;45274;52.266;10.790;2023-10-13T01:39:41;99951.31;;;15.68;100.00
27220;BME280;45274;52.266;10.790;2023-10-13T01:42:07;99947.00;;;15.61;100.00
27220;BME280;45274;52.266;10.790;2023-10-13T01:44:33;99940.09;;;15.53;100.00
27220;BME280;45274;52.266;10.790;2023-10-13T01:47:02;99940.41;;;15.50;100.00
27220;BME280;45274;52.266;10.790;2023-10-13T01:49:34;99944.28;;;15.54;100.00
27220;BME280;45274;52.266;10.790;2023-10-13T01:52:10;99928.75;;;15.62;100.00
27220;BME280;45274;52.266;10.790;2023-10-13T01:54:45;99934.06;;;15.69;100.00
27220;BME280;45274;52.266;10.790;2023-10-13T01:57:12;99927.75;;;15.71;100.00
27220;BME280;45274;52.266;10.790;2023-10-13T01:59:49;99922.38;;;15.73;100.00
27220;BME280;45274;52.266;10.790;2023-10-13T02:02:18;99924.19;;;15.72;100.00
27220;BME280;45274;52.266;10.790;2023-10-13T02:04:54;99919.81;;;15.73;100.00
27220;BME280;45274;52.266;10.790;2023-10-13T02:07:25;99920.63;;;15.73;100.00
27220;BME280;45274;52.266;10.790;2023-10-13T02:09:55;99913.38;;;15.69;100.00
27220;BME280;45274;52.266;10.790;2023-10-13T02:12:21;99909.03;;;15.69;100.00
27220;BME280;45274;52.266;10.790;2023-10-13T02:15:22;99915.03;;;15.62;100.00
27220;BME280;45274;52.266;10.790;2023-10-13T02:17:52;99918.91;;;15.66;100.00
27220;BME280;45274;52.266;10.790;2023-10-13T02:20:20;99912.88;;;15.73;100.00
27220;BME280;45274;52.266;10.790;2023-10-13T02:22:48;99912.19;;;15.79;100.00
27220;BME280;45274;52.266;10.790;2023-10-13T02:25:15;99908.66;;;15.80;100.00
27220;BME280;45274;52.266;10.790;2023-10-13T02:27:50;99901.69;;;15.81;100.00
27220;BME280;45274;52.266;10.790;2023-10-13T02:30:23;99899.13;;;15.81;100.00
27220;BME280;45274;52.266;10.790;2023-10-13T02:32:50;99895.78;;;15.72;100.00
27220;BME280;45274;52.266;10.790;2023-10-13T02:35:18;99904.69;;;15.70;100.00
27220;BME280;45274;52.266;10.790;2023-10-13T02:37:48;99901.47;;;15.60;100.00
27220;BME280;45274;52.266;10.790;2023-10-13T02:40:20;99887.63;;;15.53;100.00
27220;BME280;45274;52.266;10.790;2023-10-13T02:42:48;99894.13;;;15.49;100.00
27220;BME280;45274;52.266;10.790;2023-10-13T02:45:14;99881.50;;;15.46;100.00
27220;BME280;45274;52.266;10.790;2023-10-13T02:47:40;99884.75;;;15.40;100.00
27220;BME280;45274;52.266;10.790;2023-10-13T02:50:08;99888.34;;;15.30;100.00
27220;BME280;45274;52.266;10.790;2023-10-13T02:52:37;99886.25;;;15.26;100.00
27220;BME280;45274;52.266;10.790;2023-10-13T02:55:09;99875.97;;;15.18;100.00
27220;BME280;45274;52.266;10.790;2023-10-13T02:57:39;99883.69;;;15.26;100.00
27220;BME280;45274;52.266;10.790;2023-10-13T03:00:06;99877.75;;;15.17;100.00
27220;BME280;45274;52.266;10.790;2023-10-13T03:02:38;99881.25;;;15.24;100.00
27220;BME280;45274;52.266;10.790;2023-10-13T03:05:10;99882.41;;;15.22;100.00
27220;BME280;45274;52.266;10.790;2023-10-13T03:07:39;99863.19;;;15.24;100.00
27220;BME280;45274;52.266;10.790;2023-10-13T03:10:10;99870.13;;;15.24;100.00
27220;BME280;45274;52.266;10.790;2023-10-13T03:12:39;99867.88;;;15.21;100.00
27220;BME280;45274;52.266;10.790;2023-10-13T03:15:05;99870.13;;;15.24;100.00
27220;BME280;45274;52.266;10.790;2023-10-13T03:17:46;99857.06;;;15.25;100.00
27220;BME280;45274;52.266;10.790;2023-10-13T03:20:13;99858.69;;;15.18;100.00
27220;BME280;45274;52.266;10.790;2023-10-13T03:22:41;99856.09;;;15.18;100.00
27220;BME280;45274;52.266;10.790;2023-10-13T03:25:14;99852.56;;;15.19;100.00
27220;BME280;45274;52.266;10.790;2023-10-13T03:27:59;99856.91;;;15.19;100.00
27220;BME280;45274;52.266;10.790;2023-10-13T03:30:25;99848.22;;;15.20;100.00
27220;BME280;45274;52.266;10.790;2023-10-13T03:33:14;99837.59;;;15.15;100.00
27220;BME280;45274;52.266;10.790;2023-10-13T03:35:50;99839.50;;;15.13;100.00
27220;BME280;45274;52.266;10.790;2023-10-13T03:38:19;99835.34;;;15.12;100.00
27220;BME280;45274;52.266;10.790;2023-10-13T03:40:47;99833.53;;;15.12;100.00
27220;BME280;45274;52.266;10.790;2023-10-13T03:43:46;99821.31;;;15.06;100.00
27220;BME280;45274;52.266;10.790;2023-10-13T03:46:26;99814.66;;;15.20;100.00
27220;BME280;45274;52.266;10.790;2023-10-13T03:49:00;99803.81;;;15.24;100.00
27220;BME280;45274;52.266;10.790;2023-10-13T03:51:34;99803.88;;;15.39;100.00
27220;BME280;45274;52.266;10.790;2023-10-13T03:54:19;99816.00;;;15.47;100.00
27220;BME280;45274;52.266;10.790;2023-10-13T03:56:55;99798.16;;;15.60;100.00
27220;BME280;45274;52.266;10.790;2023-10-13T03:59:24;99798.09;;;15.68;100.00
27220;BME280;45274;52.266;10.790;2023-10-13T04:02:00;99801.03;;;15.65;100.00
27220;BME280;45274;52.266;10.790;2023-10-13T04:04:28;99797.94;;;15.69;100.00
27220;BME280;45274;52.266;10.790;2023-10-13T04:07:06;99784.78;;;15.79;100.00
27220;BME280;45274;52.266;10.790;2023-10-13T04:09:40;99794.19;;;15.72;100.00
27220;BME280;45274;52.266;10.790;2023-10-13T04:12:14;99783.59;;;15.67;100.00
27220;BME280;45274;52.266;10.790;2023-10-13T04:14:58;99782.09;;;15.72;100.00
27220;BME280;45274;52.266;10.790;2023-10-13T04:17:30;99785.78;;;15.78;100.00
27220;BME280;45274;52.266;10.790;2023-10-13T04:20:00;99789.94;;;15.79;100.00
27220;BME280;45274;52.266;10.790;2023-10-13T04:22:39;99784.09;;;15.85;100.00
27220;BME280;45274;52.266;10.790;2023-10-13T04:25:17;99778.09;;;15.84;100.00
27220;BME280;45274;52.266;10.790;2023-10-13T04:28:05;99781.81;;;15.90;100.00
27220;BME280;45274;52.266;10.790;2023-10-13T04:30:43;99778.34;;;15.98;100.00
27220;BME280;45274;52.266;10.790;2023-10-13T04:36:35;99772.16;;;15.84;100.00
27220;BME280;45274;52.266;10.790;2023-10-13T04:42:53;99767.81;;;15.99;100.00
27220;BME280;45274;52.266;10.790;2023-10-13T04:45:31;99758.13;;;16.01;100.00
27220;BME280;45274;52.266;10.790;2023-10-13T04:48:02;99752.16;;;16.01;100.00
27220;BME280;45274;52.266;10.790;2023-10-13T04:54:29;99751.69;;;15.97;100.00
27220;BME280;45274;52.266;10.790;2023-10-13T04:57:16;99752.38;;;15.91;100.00
27220;BME280;45274;52.266;10.790;2023-10-13T05:00:15;99739.38;;;15.99;100.00
27220;BME280;45274;52.266;10.790;2023-10-13T05:02:51;99731.94;;;16.04;100.00
27220;BME280;45274;52.266;10.790;2023-10-13T05:05:56;99732.31;;;16.16;100.00
27220;BME280;45274;52.266;10.790;2023-10-13T05:09:02;99738.59;;;16.13;100.00
27220;BME280;45274;52.266;10.790;2023-10-13T06:03:49;99709.75;;;16.68;100.00
27220;BME280;45274;52.266;10.790;2023-10-13T06:06:53;99709.38;;;16.71;100.00
27220;BME280;45274;52.266;10.790;2023-10-13T06:09:56;99706.38;;;16.68;100.00
27220;BME280;45274;52.266;10.790;2023-10-13T06:12:50;99703.25;;;16.72;100.00
27220;BME280;45274;52.266;10.790;2023-10-13T06:15:38;99709.13;;;16.81;100.00
27220;BME280;45274;52.266;10.790;2023-10-13T06:18:29;99702.78;;;16.83;100.00
27220;BME280;45274;52.266;10.790;2023-10-13T06:21:16;99711.16;;;16.85;100.00
27220;BME280;45274;52.266;10.790;2023-10-13T06:24:00;99701.00;;;16.84;100.00
27220;BME280;45274;52.266;10.790;2023-10-13T06:26:57;99698.59;;;16.82;100.00
27220;BME280;45274;52.266;10.790;2023-10-13T06:29:43;99699.81;;;16.86;100.00
27220;BME280;45274;52.266;10.790;2023-10-13T06:32:17;99701.00;;;16.84;100.00
27220;BME280;45274;52.266;10.790;2023-10-13T06:34:45;99706.25;;;16.90;100.00
27220;BME280;45274;52.266;10.790;2023-10-13T06:37:19;99699.22;;;16.84;100.00
27220;BME280;45274;52.266;10.790;2023-10-13T06:40:03;99693.84;;;16.86;100.00
27220;BME280;45274;52.266;10.790;2023-10-13T06:42:54;99697.94;;;16.95;100.00
27220;BME280;45274;52.266;10.790;2023-10-13T06:45:44;99694.34;;;16.96;100.00
27220;BME280;45274;52.266;10.790;2023-10-13T09:31:36;99529.56;;;18.53;100.00
27220;BME280;45274;52.266;10.790;2023-10-13T12:50:41;99280.50;;;22.96;76.48
